createdAt,value
2022-11-12T00:01:10.561Z,80.55
2022-11-12T00:03:57.366Z,79.52
2022-11-12T00:06:42.540Z,80.11
2022-11-12T00:09:27.926Z,79.78
2022-11-12T00:12:12.847Z,79.97
2022-11-12T00:14:57.745Z,79.84
2022-11-12T00:17:43.638Z,79.98
2022-11-12T00:20:28.832Z,80.06
2022-11-12T00:23:13.906Z,80.05
2022-11-12T00:25:59.810Z,80.15
2022-11-12T00:28:44.643Z,79.95
2022-11-12T00:31:29.755Z,80.38
2022-11-12T00:34:14.710Z,80.69
2022-11-12T00:37:00.117Z,80.46
2022-11-12T00:39:45.325Z,80.40
2022-11-12T00:42:30.770Z,80.05
2022-11-12T00:45:16.202Z,80.49
2022-11-12T00:48:01.117Z,80.38
2022-11-12T00:50:46.639Z,80.22
2022-11-12T00:53:31.736Z,80.20
2022-11-12T00:56:16.890Z,79.97
2022-11-12T00:59:01.803Z,79.63
2022-11-12T01:01:46.809Z,80.07
2022-11-12T01:04:32.256Z,79.71
2022-11-12T01:07:17.277Z,79.67
2022-11-12T01:10:02.451Z,79.73
2022-11-12T01:12:47.438Z,79.79
2022-11-12T01:15:32.286Z,79.87
2022-11-12T01:18:17.134Z,80.22
2022-11-12T01:21:02.609Z,80.26
2022-11-12T01:23:47.614Z,80.19
2022-11-12T01:26:32.587Z,80.34
2022-11-12T01:29:17.560Z,80.14
2022-11-12T01:32:02.462Z,80.11
2022-11-12T01:34:47.287Z,80.39
2022-11-12T01:37:32.188Z,80.58
2022-11-12T01:40:17.665Z,80.22
2022-11-12T01:43:03.079Z,80.40
2022-11-12T01:45:49.101Z,80.41
2022-11-12T01:48:47.094Z,80.50
2022-11-12T01:51:33.381Z,80.24
2022-11-12T01:54:19.036Z,80.16
2022-11-12T01:57:03.941Z,80.33
2022-11-12T01:59:49.160Z,80.38
2022-11-12T02:02:35.057Z,80.18
2022-11-12T02:05:20.232Z,80.38
2022-11-12T02:08:05.407Z,80.38
2022-11-12T02:10:50.742Z,80.59
2022-11-12T02:13:54.697Z,80.61
2022-11-12T02:16:41.188Z,79.71
2022-11-12T02:19:26.662Z,79.65
2022-11-12T02:22:12.048Z,79.43
2022-11-12T02:24:56.981Z,79.66
2022-11-12T02:27:41.847Z,79.66
2022-11-12T02:30:32.957Z,79.97
2022-11-12T02:33:17.913Z,80.38
2022-11-12T02:36:02.992Z,80.25
2022-11-12T02:38:47.973Z,80.39
2022-11-12T02:41:32.723Z,80.54
2022-11-12T02:44:17.619Z,80.47
2022-11-12T02:47:02.485Z,80.42
2022-11-12T02:49:47.471Z,80.46
2022-11-12T02:52:32.753Z,80.17
2022-11-12T02:55:17.757Z,80.20
2022-11-12T02:58:02.831Z,80.23
2022-11-12T03:00:48.571Z,80.55
2022-11-12T03:03:34.030Z,80.32
2022-11-12T03:06:19.079Z,79.58
2022-11-12T03:09:03.979Z,79.58
2022-11-12T03:11:48.823Z,79.50
2022-11-12T03:14:33.768Z,79.97
2022-11-12T03:17:19.474Z,80.10
2022-11-12T03:20:04.514Z,80.03
2022-11-12T03:22:56.546Z,79.90
2022-11-12T03:25:41.560Z,79.88
2022-11-12T03:28:26.674Z,80.08
2022-11-12T03:31:12.065Z,79.93
2022-11-12T03:33:56.913Z,79.96
2022-11-12T03:36:41.836Z,79.76
2022-11-12T03:39:26.844Z,80.24
2022-11-12T03:42:11.857Z,79.07
2022-11-12T03:44:57.055Z,78.92
2022-11-12T03:47:43.000Z,78.86
2022-11-12T03:50:28.517Z,78.58
2022-11-12T03:53:13.629Z,79.06
2022-11-12T03:55:58.808Z,79.17
2022-11-12T03:58:43.858Z,79.45
2022-11-12T04:01:29.322Z,78.56
2022-11-12T04:04:14.322Z,77.64
2022-11-12T04:07:17.977Z,77.61
2022-11-12T04:10:03.215Z,78.02
2022-11-12T04:13:06.832Z,78.13
2022-11-12T04:16:11.929Z,78.96
2022-11-12T04:19:16.160Z,79.01
2022-11-12T04:22:02.810Z,79.39
2022-11-12T04:25:06.924Z,79.33
2022-11-12T04:27:52.023Z,79.34
2022-11-12T04:30:37.378Z,79.19
2022-11-12T04:33:22.694Z,78.84
2022-11-12T04:36:07.662Z,79.15
2022-11-12T04:38:52.574Z,79.60
2022-11-12T04:41:56.178Z,79.34
2022-11-12T04:44:59.860Z,78.98
2022-11-12T04:47:45.028Z,78.98
2022-11-12T04:50:29.900Z,79.07
2022-11-12T04:53:15.000Z,79.30
2022-11-12T04:56:03.217Z,79.03
2022-11-12T04:58:48.436Z,78.95
2022-11-12T05:01:33.603Z,78.60
2022-11-12T05:04:19.025Z,79.26
2022-11-12T05:07:04.057Z,78.69
2022-11-12T05:09:49.499Z,78.63
2022-11-12T05:12:34.427Z,78.95
2022-11-12T05:15:19.359Z,79.21
2022-11-12T05:18:04.470Z,79.64
2022-11-12T05:20:51.423Z,79.54
2022-11-12T05:23:36.298Z,79.72
2022-11-12T05:26:21.217Z,79.52
2022-11-12T05:29:08.903Z,77.89
2022-11-12T05:31:56.834Z,77.97
2022-11-12T05:34:42.059Z,78.39
2022-11-12T05:37:27.156Z,77.62
2022-11-12T05:40:12.229Z,77.38
2022-11-12T05:42:57.530Z,76.77
2022-11-12T05:45:42.915Z,78.03
2022-11-12T05:48:28.451Z,78.37
2022-11-12T05:51:14.678Z,78.44
2022-11-12T05:54:00.948Z,78.39
2022-11-12T05:56:46.230Z,78.63
2022-11-12T05:59:31.468Z,78.89
2022-11-12T06:02:16.444Z,78.15
2022-11-12T06:05:01.860Z,78.70
2022-11-12T06:07:46.861Z,78.54
2022-11-12T06:10:32.887Z,78.85
2022-11-12T06:13:18.583Z,78.93
2022-11-12T06:16:03.494Z,78.80
2022-11-12T06:18:48.769Z,78.76
2022-11-12T06:21:33.726Z,78.80
2022-11-12T06:24:19.249Z,78.50
2022-11-12T06:27:04.105Z,78.46
2022-11-12T06:29:48.972Z,79.09
2022-11-12T06:32:34.059Z,77.12
2022-11-12T06:35:19.150Z,78.04
2022-11-12T06:38:04.249Z,78.39
2022-11-12T06:40:49.340Z,78.75
2022-11-12T06:43:34.492Z,78.57
2022-11-12T06:46:19.630Z,78.67
2022-11-12T06:49:04.761Z,78.45
2022-11-12T06:51:52.882Z,78.40
2022-11-12T06:54:37.867Z,78.48
2022-11-12T06:57:23.198Z,78.64
2022-11-12T07:00:12.198Z,78.29
2022-11-12T07:02:57.490Z,78.51
2022-11-12T07:05:43.123Z,78.54
2022-11-12T07:08:28.458Z,78.68
2022-11-12T07:11:14.111Z,78.75
2022-11-12T07:13:59.106Z,79.05
2022-11-12T07:16:46.184Z,78.19
2022-11-12T07:19:31.527Z,78.85
2022-11-12T07:22:16.488Z,79.95
2022-11-12T07:25:04.871Z,79.49
2022-11-12T07:27:50.358Z,79.85
2022-11-12T07:30:35.506Z,78.63
2022-11-12T07:33:20.549Z,78.93
2022-11-12T07:36:06.892Z,78.19
2022-11-12T07:38:52.688Z,78.40
2022-11-12T07:41:37.920Z,77.93
2022-11-12T07:44:22.822Z,78.01
2022-11-12T07:47:07.884Z,77.51
2022-11-12T07:49:52.991Z,77.56
2022-11-12T07:52:38.023Z,77.88
2022-11-12T07:55:23.182Z,77.55
2022-11-12T07:58:08.130Z,77.33
2022-11-12T08:00:53.367Z,77.19
2022-11-12T08:03:41.446Z,77.10
2022-11-12T08:06:26.970Z,77.31
2022-11-12T08:09:12.303Z,77.43
2022-11-12T08:11:57.391Z,77.26
2022-11-12T08:14:43.057Z,76.61
2022-11-12T08:17:28.186Z,76.20
2022-11-12T08:20:13.409Z,75.11
2022-11-12T08:23:01.763Z,74.83
2022-11-12T08:25:47.878Z,74.13
2022-11-12T08:28:33.556Z,73.67
2022-11-12T08:31:19.837Z,73.94
2022-11-12T08:34:12.681Z,73.62
2022-11-12T08:36:58.164Z,73.15
2022-11-12T08:39:43.271Z,73.33
2022-11-12T08:42:28.112Z,72.99
2022-11-12T08:45:13.201Z,73.09
2022-11-12T08:48:05.612Z,73.27
2022-11-12T08:50:50.520Z,73.19
2022-11-12T08:53:35.719Z,73.27
2022-11-12T08:56:21.523Z,73.28
2022-11-12T08:59:07.580Z,72.58
2022-11-12T09:01:53.227Z,72.36
2022-11-12T09:04:38.678Z,71.96
2022-11-12T09:10:29.746Z,72.51
2022-11-12T09:13:14.799Z,71.19
2022-11-12T09:16:07.022Z,71.45
2022-11-12T09:18:52.170Z,71.60
2022-11-12T09:21:37.038Z,70.70
2022-11-12T09:24:23.810Z,70.32
2022-11-12T09:27:09.018Z,70.02
2022-11-12T09:29:55.614Z,69.99
2022-11-12T09:32:46.939Z,70.39
2022-11-12T09:35:32.246Z,70.15
2022-11-12T09:38:20.880Z,69.86
2022-11-12T09:41:22.672Z,69.80
2022-11-12T09:44:12.019Z,70.25
2022-11-12T09:47:03.144Z,69.50
2022-11-12T09:49:51.247Z,69.67
2022-11-12T09:52:37.754Z,70.65
2022-11-12T09:55:42.981Z,71.19
2022-11-12T09:58:34.235Z,70.05
2022-11-12T10:01:32.318Z,70.10
2022-11-12T10:04:47.824Z,68.50
2022-11-12T10:07:40.345Z,67.92
2022-11-12T10:10:28.715Z,69.25
2022-11-12T10:13:17.341Z,68.48
2022-11-12T10:16:24.520Z,68.14
2022-11-12T10:19:29.410Z,69.03
2022-11-12T10:22:31.479Z,68.57
2022-11-12T10:25:20.785Z,67.90
2022-11-12T10:28:20.131Z,66.88
2022-11-12T10:31:10.937Z,66.79
2022-11-12T10:34:00.820Z,64.94
2022-11-12T10:36:49.548Z,65.48
2022-11-12T10:39:35.347Z,66.51
2022-11-12T10:42:21.231Z,65.09
2022-11-12T10:45:18.495Z,64.69
2022-11-12T10:48:03.836Z,64.62
2022-11-12T10:50:49.192Z,64.41
2022-11-12T10:53:35.548Z,64.52
2022-11-12T10:56:30.729Z,63.28
2022-11-12T10:59:15.741Z,64.91
2022-11-12T11:02:01.135Z,64.52
2022-11-12T11:04:46.844Z,63.71
2022-11-12T11:07:31.981Z,63.47
2022-11-12T11:10:43.347Z,62.92
2022-11-12T11:13:28.977Z,65.29
2022-11-12T11:16:15.430Z,65.39
2022-11-12T11:19:04.994Z,64.44
2022-11-12T11:21:49.833Z,63.27
2022-11-12T11:24:39.262Z,62.14
2022-11-12T11:27:41.323Z,64.41
2022-11-12T11:30:28.759Z,65.35
2022-11-12T11:33:29.244Z,64.55
2022-11-12T11:36:17.875Z,63.74
2022-11-12T11:39:15.313Z,65.47
2022-11-12T11:42:03.669Z,64.76
2022-11-12T11:44:58.684Z,63.50
2022-11-12T11:48:02.848Z,65.61
2022-11-12T11:50:59.280Z,65.38
2022-11-12T11:53:44.190Z,64.20
2022-11-12T11:56:31.909Z,65.25
2022-11-12T11:59:20.634Z,64.40
2022-11-12T12:02:05.563Z,65.06
2022-11-12T12:05:10.105Z,64.11
2022-11-12T12:07:57.795Z,63.53
2022-11-12T12:11:08.262Z,64.52
2022-11-12T12:13:57.695Z,63.66
2022-11-12T12:16:47.040Z,64.56
2022-11-12T12:19:52.091Z,63.64
2022-11-12T12:22:38.626Z,64.30
2022-11-12T12:25:25.626Z,63.77
2022-11-12T12:28:20.068Z,64.23
2022-11-12T12:31:07.235Z,65.11
2022-11-12T12:34:05.653Z,64.46
2022-11-12T12:36:52.366Z,64.47
2022-11-12T12:39:43.584Z,64.96
2022-11-12T12:42:43.162Z,64.44
2022-11-12T12:45:37.430Z,63.77
2022-11-12T12:48:25.994Z,65.40
2022-11-12T12:51:11.948Z,65.44
2022-11-12T12:53:57.063Z,64.39
2022-11-12T12:56:42.851Z,66.26
2022-11-12T12:59:27.779Z,64.91
2022-11-12T13:02:19.575Z,64.99
2022-11-12T13:05:05.109Z,64.75
2022-11-12T13:07:52.917Z,64.17
2022-11-12T13:10:44.602Z,64.40
2022-11-12T13:13:32.740Z,64.71
2022-11-12T13:16:36.843Z,64.52
2022-11-12T13:19:28.522Z,65.36
2022-11-12T13:22:19.994Z,64.64
2022-11-12T13:25:08.171Z,65.21
2022-11-12T13:27:53.164Z,64.95
2022-11-12T13:30:41.785Z,66.44
2022-11-12T13:33:29.277Z,65.84
2022-11-12T13:36:32.763Z,66.74
2022-11-12T13:39:19.086Z,64.77
2022-11-12T13:42:27.793Z,64.86
2022-11-12T13:45:13.351Z,65.44
2022-11-12T13:47:58.258Z,65.86
2022-11-12T13:50:43.291Z,66.46
2022-11-12T13:53:28.639Z,65.80
2022-11-12T13:56:26.384Z,66.41
2022-11-12T13:59:15.164Z,66.69
2022-11-12T14:02:02.798Z,67.08
2022-11-12T14:04:48.195Z,67.68
2022-11-12T14:07:54.398Z,66.83
2022-11-12T14:10:46.441Z,66.58
2022-11-12T14:13:45.690Z,66.33
2022-11-12T14:16:33.880Z,66.81
2022-11-12T14:19:34.934Z,67.41
2022-11-12T14:22:20.428Z,66.97
2022-11-12T14:25:13.844Z,66.96
2022-11-12T14:27:58.928Z,67.39
2022-11-12T14:30:44.781Z,67.29
2022-11-12T14:33:30.811Z,68.35
2022-11-12T14:36:16.502Z,68.59
2022-11-12T14:39:01.402Z,69.80
2022-11-12T14:41:47.786Z,69.15
2022-11-12T14:44:33.876Z,69.18
2022-11-12T14:47:19.114Z,69.50
2022-11-12T14:50:04.249Z,69.46
2022-11-12T14:52:49.642Z,70.10
2022-11-12T14:55:35.960Z,70.67
2022-11-12T14:58:21.606Z,71.57
2022-11-12T15:01:59.290Z,71.98
2022-11-12T15:04:26.367Z,72.17
2022-11-12T15:07:27.512Z,72.51
2022-11-12T15:10:31.603Z,72.76
2022-11-12T15:13:21.253Z,73.14
2022-11-12T15:16:10.026Z,73.44
2022-11-12T15:19:01.332Z,72.66
2022-11-12T15:22:04.637Z,73.46
2022-11-12T15:24:49.804Z,73.03
2022-11-12T15:27:38.820Z,73.70
2022-11-12T15:30:25.430Z,73.45
2022-11-12T15:33:13.768Z,73.86
2022-11-12T15:35:59.571Z,74.41
2022-11-12T15:38:49.085Z,74.66
2022-11-12T15:41:35.673Z,75.20
2022-11-12T15:44:20.938Z,75.20
2022-11-12T15:47:06.280Z,74.89
2022-11-12T15:49:52.380Z,74.87
2022-11-12T15:52:37.975Z,74.57
2022-11-12T15:55:24.496Z,75.17
2022-11-12T15:58:17.772Z,75.23
2022-11-12T16:01:03.795Z,75.96
2022-11-12T16:03:48.975Z,76.12
2022-11-12T16:06:34.100Z,76.26
2022-11-12T16:09:19.092Z,76.57
2022-11-12T16:12:03.929Z,76.50
2022-11-12T16:14:48.863Z,76.83
2022-11-12T16:17:33.874Z,76.61
2022-11-12T16:20:26.929Z,76.50
2022-11-12T16:23:12.326Z,76.83
2022-11-12T16:25:57.393Z,76.81
2022-11-12T16:28:43.855Z,77.16
2022-11-12T16:31:28.970Z,77.03
2022-11-12T16:34:13.913Z,77.07
2022-11-12T16:36:58.967Z,77.26
2022-11-12T16:39:43.865Z,77.35
2022-11-12T16:42:28.727Z,77.62
2022-11-12T16:45:17.665Z,77.70
2022-11-12T16:48:03.089Z,77.73
2022-11-12T16:50:48.234Z,78.17
2022-11-12T16:53:33.429Z,77.58
2022-11-12T16:56:19.991Z,77.76
2022-11-12T16:59:05.500Z,78.53
2022-11-12T17:01:51.050Z,78.92
2022-11-12T17:04:36.374Z,78.51
2022-11-12T17:07:21.437Z,77.80
2022-11-12T17:10:07.069Z,77.94
2022-11-12T17:12:52.791Z,77.83
2022-11-12T17:15:37.818Z,78.09
2022-11-12T17:18:22.654Z,78.12
2022-11-12T17:21:08.569Z,78.23
2022-11-12T17:23:55.039Z,78.02
2022-11-12T17:26:39.890Z,78.48
2022-11-12T17:29:24.859Z,78.52
2022-11-12T17:32:10.399Z,78.28
2022-11-12T17:34:56.009Z,78.42
2022-11-12T17:37:40.950Z,78.21
2022-11-12T17:40:25.862Z,78.78
2022-11-12T17:43:10.903Z,78.46
2022-11-12T17:45:56.008Z,77.96
2022-11-12T17:48:41.302Z,78.31
2022-11-12T17:51:27.359Z,77.99
2022-11-12T17:54:12.671Z,78.41
2022-11-12T17:56:58.176Z,78.01
2022-11-12T17:59:43.098Z,78.09
2022-11-12T18:02:29.126Z,78.49
2022-11-12T18:08:00.056Z,78.44
2022-11-12T18:10:45.673Z,78.39
2022-11-12T18:13:31.153Z,78.43
2022-11-12T18:16:20.374Z,78.41
2022-11-12T18:19:05.701Z,78.63
2022-11-12T18:21:52.817Z,78.69
2022-11-12T18:24:38.118Z,78.94
2022-11-12T18:27:23.057Z,78.75
2022-11-12T18:30:16.399Z,78.24
2022-11-12T18:33:04.531Z,78.95
2022-11-12T18:35:49.424Z,78.47
2022-11-12T18:38:35.250Z,78.28
2022-11-12T18:41:22.923Z,78.84
2022-11-12T18:44:07.883Z,78.50
2022-11-12T18:46:52.938Z,78.70
2022-11-12T18:49:38.025Z,78.69
2022-11-12T18:52:22.817Z,78.50
2022-11-12T18:55:08.664Z,78.43
2022-11-12T18:57:53.900Z,78.34
2022-11-12T19:00:38.739Z,78.48
2022-11-12T19:03:23.725Z,78.73
2022-11-12T19:06:11.450Z,78.36
2022-11-12T19:09:00.333Z,79.00
2022-11-12T19:11:45.689Z,78.94
2022-11-12T19:14:30.552Z,78.17
2022-11-12T19:17:15.736Z,79.16
2022-11-12T19:20:00.643Z,78.93
2022-11-12T19:22:45.676Z,78.42
2022-11-12T19:25:30.662Z,78.28
2022-11-12T19:28:15.618Z,78.88
2022-11-12T19:31:04.271Z,78.98
2022-11-12T19:33:49.309Z,78.59
2022-11-12T19:36:34.412Z,78.44
2022-11-12T19:39:19.605Z,78.46
2022-11-12T19:42:07.266Z,78.79
2022-11-12T19:44:52.640Z,78.71
2022-11-12T19:47:37.792Z,78.75
2022-11-12T19:50:24.821Z,78.68
2022-11-12T19:53:10.616Z,78.50
2022-11-12T19:55:58.895Z,78.74
2022-11-12T19:58:44.842Z,78.68
2022-11-12T20:01:29.704Z,79.25
2022-11-12T20:04:15.757Z,79.39
2022-11-12T20:07:03.264Z,78.76
2022-11-12T20:09:48.455Z,78.75
2022-11-12T20:12:33.931Z,78.62
2022-11-12T20:15:21.999Z,78.58
2022-11-12T20:18:07.336Z,79.10
2022-11-12T20:20:55.855Z,78.59
2022-11-12T20:23:43.067Z,78.66
2022-11-12T20:26:28.274Z,78.37
2022-11-12T20:29:13.233Z,78.59
2022-11-12T20:31:58.356Z,78.57
2022-11-12T20:34:43.252Z,78.57
2022-11-12T20:37:29.472Z,78.51
2022-11-12T20:40:15.011Z,78.44
2022-11-12T20:43:00.243Z,78.53
2022-11-12T20:45:49.906Z,78.61
2022-11-12T20:48:38.849Z,78.74
2022-11-12T20:51:29.105Z,79.04
2022-11-12T20:54:14.416Z,78.74
2022-11-12T20:57:01.203Z,78.63
2022-11-12T20:59:48.280Z,78.61
2022-11-12T21:02:36.053Z,78.97
2022-11-12T21:05:21.174Z,79.35
2022-11-12T21:08:06.140Z,79.12
2022-11-12T21:10:51.356Z,78.78
2022-11-12T21:13:36.658Z,78.79
2022-11-12T21:16:21.749Z,78.84
2022-11-12T21:19:07.174Z,78.48
2022-11-12T21:21:52.101Z,78.52
2022-11-12T21:24:36.985Z,78.98
2022-11-12T21:27:22.038Z,78.71
2022-11-12T21:30:07.127Z,78.76
2022-11-12T21:32:52.408Z,78.60
2022-11-12T21:35:37.245Z,78.97
2022-11-12T21:38:23.189Z,78.87
2022-11-12T21:41:09.742Z,78.63
2022-11-12T21:43:55.799Z,78.49
2022-11-12T21:46:41.256Z,78.70
2022-11-12T21:49:26.147Z,79.16
2022-11-12T21:52:13.269Z,79.17
2022-11-12T21:54:59.149Z,78.74
2022-11-12T21:57:44.165Z,79.15
2022-11-12T22:00:44.288Z,78.85
2022-11-12T22:03:32.650Z,78.43
2022-11-12T22:06:18.103Z,78.74
2022-11-12T22:09:03.763Z,78.86
2022-11-12T22:11:48.912Z,78.73
2022-11-12T22:14:33.847Z,79.21
2022-11-12T22:17:19.724Z,78.94
2022-11-12T22:20:05.151Z,78.80
2022-11-12T22:22:51.334Z,78.48
2022-11-12T22:25:36.393Z,78.51
2022-11-12T22:28:21.394Z,78.72
2022-11-12T22:31:13.486Z,78.93
2022-11-12T22:33:59.820Z,78.61
2022-11-12T22:36:44.898Z,79.11
2022-11-12T22:39:29.887Z,79.50
2022-11-12T22:42:14.703Z,78.94
2022-11-12T22:44:59.690Z,79.57
2022-11-12T22:47:44.585Z,78.82
2022-11-12T22:50:29.614Z,78.28
2022-11-12T22:53:14.883Z,78.17
2022-11-12T22:56:03.701Z,78.73
2022-11-12T22:58:49.003Z,78.35
2022-11-12T23:01:34.868Z,79.12
2022-11-12T23:04:20.005Z,79.15
2022-11-12T23:07:05.119Z,79.27
2022-11-12T23:09:50.522Z,79.08
2022-11-12T23:12:35.668Z,79.27
2022-11-12T23:15:20.485Z,79.51
2022-11-12T23:18:05.414Z,79.19
2022-11-12T23:20:50.357Z,79.07
2022-11-12T23:23:36.068Z,78.68
2022-11-12T23:26:23.227Z,78.72
2022-11-12T23:29:09.733Z,79.11
2022-11-12T23:31:54.686Z,79.54
2022-11-12T23:34:39.572Z,79.26
2022-11-12T23:37:24.647Z,79.21
2022-11-12T23:40:09.740Z,78.88
2022-11-12T23:42:55.178Z,78.93
2022-11-12T23:45:40.522Z,78.72
2022-11-12T23:48:25.934Z,78.73
2022-11-12T23:51:12.439Z,79.17
2022-11-12T23:53:57.435Z,78.75
2022-11-12T23:56:42.188Z,78.39
2022-11-12T23:59:27.389Z,77.95
